AAL1095 KMIA-MYNN
Flight info
| Callsign | AAL1095 |
|---|---|
| Flight time | 0h 30m |
| Altitude | 21000 |
| Route | KLADA2 RAJAY |
| Aircraft | B738/M-SDE2E3FGHIRWXY/LB1 |
Departure
| Time | 2026-04-30 19:38 |
|---|---|
| Airport | Miami International Airport (KMIA) |
Arrival
| Time | 2026-04-30 20:09 |
|---|---|
| Airport | Lynden Pindling International Airport (MYNN) |
| Time | Latitude | Longitude | Altitude | Speed | Heading |
|---|---|---|---|---|---|
| 2026-04-30 19:19 | 25.79838 | -80.28171 | 15 ft | 0 kts | 177° |
| 2026-04-30 19:30 | 25.79901 | -80.28149 | 14 ft | 4 kts | 278° |
| 2026-04-30 19:30 | 25.79903 | -80.28145 | 14 ft | 0 kts | 357° |
| 2026-04-30 19:32 | 25.79920 | -80.28146 | 15 ft | 8 kts | 358° |
| 2026-04-30 19:33 | 25.80002 | -80.28157 | 14 ft | 13 kts | 336° |
| 2026-04-30 19:33 | 25.80038 | -80.28241 | 14 ft | 13 kts | 270° |
| 2026-04-30 19:33 | 25.80035 | -80.28340 | 14 ft | 13 kts | 268° |
| 2026-04-30 19:33 | 25.80031 | -80.28445 | 14 ft | 14 kts | 268° |
| 2026-04-30 19:34 | 25.80027 | -80.28550 | 14 ft | 13 kts | 268° |
| 2026-04-30 19:34 | 25.80023 | -80.28654 | 15 ft | 14 kts | 268° |
| 2026-04-30 19:34 | 25.80013 | -80.28855 | 15 ft | 13 kts | 267° |
| 2026-04-30 19:35 | 25.80010 | -80.28952 | 15 ft | 12 kts | 268° |
| 2026-04-30 19:35 | 25.80007 | -80.29046 | 17 ft | 12 kts | 268° |
| 2026-04-30 19:35 | 25.80004 | -80.29137 | 15 ft | 12 kts | 267° |
| 2026-04-30 19:35 | 25.79999 | -80.29230 | 15 ft | 13 kts | 267° |
| 2026-04-30 19:36 | 25.79993 | -80.29353 | 14 ft | 17 kts | 267° |
| 2026-04-30 19:36 | 25.79986 | -80.29514 | 13 ft | 24 kts | 267° |
| 2026-04-30 19:36 | 25.79972 | -80.29864 | 13 ft | 22 kts | 267° |
| 2026-04-30 19:37 | 25.79993 | -80.30030 | 14 ft | 21 kts | 284° |
| 2026-04-30 19:37 | 25.80058 | -80.30109 | 13 ft | 14 kts | 31° |
| 2026-04-30 19:37 | 25.80076 | -80.30020 | 12 ft | 16 kts | 87° |
| 2026-04-30 19:37 | 25.80090 | -80.29648 | 13 ft | 84 kts | 87° |
| 2026-04-30 19:38 | 25.80119 | -80.28771 | 23 ft | 142 kts | 89° |
| 2026-04-30 19:38 | 25.80199 | -80.27580 | 412 ft | 164 kts | 88° |
| 2026-04-30 19:38 | 25.80303 | -80.26280 | 1129 ft | 171 kts | 89° |
| 2026-04-30 19:38 | 25.80199 | -80.24912 | 1545 ft | 192 kts | 114° |
| 2026-04-30 19:39 | 25.79528 | -80.23536 | 1819 ft | 215 kts | 121° |
| 2026-04-30 19:39 | 25.78760 | -80.22002 | 2099 ft | 234 kts | 122° |
| 2026-04-30 19:39 | 25.77948 | -80.20356 | 2369 ft | 255 kts | 120° |
| 2026-04-30 19:39 | 25.77077 | -80.18576 | 2834 ft | 270 kts | 121° |
| 2026-04-30 19:40 | 25.76172 | -80.16743 | 3555 ft | 274 kts | 120° |
| 2026-04-30 19:40 | 25.75260 | -80.14897 | 4315 ft | 276 kts | 120° |
| 2026-04-30 19:40 | 25.74337 | -80.13030 | 4757 ft | 275 kts | 120° |
| 2026-04-30 19:40 | 25.73404 | -80.11140 | 4988 ft | 280 kts | 118° |
| 2026-04-30 19:41 | 25.72619 | -80.09148 | 5073 ft | 284 kts | 112° |
| 2026-04-30 19:41 | 25.71942 | -80.07075 | 5733 ft | 288 kts | 110° |
| 2026-04-30 19:41 | 25.71503 | -80.05688 | 6299 ft | 288 kts | 110° |
| 2026-04-30 19:41 | 25.70836 | -80.03586 | 7040 ft | 291 kts | 110° |
| 2026-04-30 19:42 | 25.70150 | -80.01446 | 7740 ft | 296 kts | 110° |
| 2026-04-30 19:42 | 25.69451 | -79.99293 | 8434 ft | 300 kts | 110° |
| 2026-04-30 19:42 | 25.68734 | -79.97100 | 9125 ft | 304 kts | 110° |
| 2026-04-30 19:42 | 25.68004 | -79.94881 | 9820 ft | 309 kts | 110° |
| 2026-04-30 19:43 | 25.67256 | -79.92620 | 10356 ft | 319 kts | 110° |
| 2026-04-30 19:43 | 25.66465 | -79.90233 | 10516 ft | 342 kts | 110° |
| 2026-04-30 19:43 | 25.65621 | -79.87689 | 10780 ft | 358 kts | 110° |
| 2026-04-30 19:44 | 25.63864 | -79.82408 | 11925 ft | 369 kts | 110° |
| 2026-04-30 19:44 | 25.62973 | -79.79730 | 12589 ft | 372 kts | 110° |
| 2026-04-30 19:44 | 25.62081 | -79.77054 | 13234 ft | 376 kts | 110° |
| 2026-04-30 19:44 | 25.61171 | -79.74323 | 13874 ft | 380 kts | 109° |
| 2026-04-30 19:45 | 25.60249 | -79.71561 | 14482 ft | 383 kts | 110° |
| 2026-04-30 19:45 | 25.59348 | -79.68771 | 15148 ft | 385 kts | 107° |
| 2026-04-30 19:45 | 25.58560 | -79.65923 | 15804 ft | 388 kts | 105° |
| 2026-04-30 19:45 | 25.57823 | -79.63030 | 16437 ft | 391 kts | 105° |
| 2026-04-30 19:46 | 25.57096 | -79.60108 | 17065 ft | 395 kts | 105° |
| 2026-04-30 19:46 | 25.56359 | -79.57155 | 17694 ft | 398 kts | 105° |
| 2026-04-30 19:46 | 25.55620 | -79.54225 | 18292 ft | 401 kts | 105° |
| 2026-04-30 19:46 | 25.54859 | -79.51239 | 18795 ft | 405 kts | 105° |
| 2026-04-30 19:47 | 25.54083 | -79.48224 | 19269 ft | 409 kts | 105° |
| 2026-04-30 19:47 | 25.53551 | -79.46166 | 19596 ft | 412 kts | 105° |
| 2026-04-30 19:47 | 25.52496 | -79.42103 | 20244 ft | 417 kts | 105° |
| 2026-04-30 19:47 | 25.51690 | -79.39004 | 20715 ft | 420 kts | 105° |
| 2026-04-30 19:48 | 25.50875 | -79.35878 | 20962 ft | 426 kts | 105° |
| 2026-04-30 19:48 | 25.50046 | -79.32702 | 20962 ft | 431 kts | 105° |
| 2026-04-30 19:48 | 25.49215 | -79.29523 | 20964 ft | 428 kts | 105° |
| 2026-04-30 19:48 | 25.48388 | -79.26357 | 20967 ft | 428 kts | 105° |
| 2026-04-30 19:49 | 25.47558 | -79.23187 | 20974 ft | 428 kts | 105° |
| 2026-04-30 19:49 | 25.45900 | -79.16859 | 20971 ft | 428 kts | 106° |
| 2026-04-30 19:49 | 25.45070 | -79.13693 | 20968 ft | 428 kts | 106° |
| 2026-04-30 19:50 | 25.44239 | -79.10529 | 20969 ft | 428 kts | 106° |
| 2026-04-30 19:50 | 25.43407 | -79.07363 | 20964 ft | 428 kts | 106° |
| 2026-04-30 19:50 | 25.42584 | -79.04235 | 20966 ft | 428 kts | 106° |
| 2026-04-30 19:50 | 25.41751 | -79.01071 | 20972 ft | 428 kts | 106° |
| 2026-04-30 19:51 | 25.40918 | -78.97911 | 20968 ft | 428 kts | 106° |
| 2026-04-30 19:51 | 25.40085 | -78.94754 | 20969 ft | 427 kts | 106° |
| 2026-04-30 19:51 | 25.39250 | -78.91594 | 20967 ft | 427 kts | 106° |
| 2026-04-30 19:51 | 25.38416 | -78.88437 | 20968 ft | 427 kts | 106° |
| 2026-04-30 19:52 | 25.37586 | -78.85303 | 20960 ft | 421 kts | 106° |
| 2026-04-30 19:52 | 25.36776 | -78.82244 | 20951 ft | 406 kts | 106° |
| 2026-04-30 19:52 | 25.35990 | -78.79277 | 20955 ft | 399 kts | 106° |
| 2026-04-30 19:52 | 25.35216 | -78.76360 | 20958 ft | 397 kts | 106° |
| 2026-04-30 19:53 | 25.34442 | -78.73447 | 20907 ft | 399 kts | 106° |
| 2026-04-30 19:53 | 25.33658 | -78.70497 | 20582 ft | 397 kts | 106° |
| 2026-04-30 19:53 | 25.32879 | -78.67567 | 20182 ft | 396 kts | 106° |
| 2026-04-30 19:53 | 25.32107 | -78.64665 | 19780 ft | 393 kts | 106° |
| 2026-04-30 19:54 | 25.31337 | -78.61776 | 19375 ft | 390 kts | 106° |
| 2026-04-30 19:54 | 25.30571 | -78.58902 | 18945 ft | 389 kts | 106° |
| 2026-04-30 19:54 | 25.29806 | -78.56036 | 18515 ft | 387 kts | 106° |
| 2026-04-30 19:54 | 25.29046 | -78.53188 | 18066 ft | 386 kts | 106° |
| 2026-04-30 19:55 | 25.28295 | -78.50379 | 17618 ft | 384 kts | 106° |
| 2026-04-30 19:55 | 25.27539 | -78.47555 | 17189 ft | 382 kts | 105° |
| 2026-04-30 19:55 | 25.27100 | -78.44681 | 16738 ft | 377 kts | 86° |
| 2026-04-30 19:55 | 25.27352 | -78.41820 | 16377 ft | 372 kts | 80° |
| 2026-04-30 19:56 | 25.27702 | -78.38991 | 15964 ft | 370 kts | 79° |
| 2026-04-30 19:56 | 25.28060 | -78.36185 | 15562 ft | 368 kts | 79° |
| 2026-04-30 19:56 | 25.28404 | -78.33392 | 15162 ft | 366 kts | 80° |
| 2026-04-30 19:56 | 25.28730 | -78.30644 | 14767 ft | 364 kts | 80° |
| 2026-04-30 19:57 | 25.29055 | -78.27832 | 14349 ft | 363 kts | 80° |
| 2026-04-30 19:57 | 25.29366 | -78.25103 | 13958 ft | 362 kts | 80° |
| 2026-04-30 19:57 | 25.29678 | -78.22342 | 13543 ft | 361 kts | 80° |
| 2026-04-30 19:57 | 25.29983 | -78.19597 | 13112 ft | 359 kts | 82° |
| 2026-04-30 19:58 | 25.29879 | -78.16847 | 12653 ft | 361 kts | 99° |
| 2026-04-30 19:58 | 25.29357 | -78.14138 | 12236 ft | 359 kts | 101° |
| 2026-04-30 19:58 | 25.28790 | -78.11451 | 11811 ft | 358 kts | 102° |
| 2026-04-30 19:58 | 25.28221 | -78.08772 | 11342 ft | 357 kts | 102° |
| 2026-04-30 19:59 | 25.27662 | -78.06101 | 10909 ft | 355 kts | 102° |
| 2026-04-30 19:59 | 25.27116 | -78.03443 | 10484 ft | 354 kts | 102° |
| 2026-04-30 19:59 | 25.26076 | -77.98291 | 9902 ft | 325 kts | 102° |
| 2026-04-30 20:00 | 25.25604 | -77.95933 | 9859 ft | 305 kts | 101° |
| 2026-04-30 20:00 | 25.25159 | -77.93705 | 9672 ft | 291 kts | 101° |
| 2026-04-30 20:00 | 25.24741 | -77.91609 | 9567 ft | 273 kts | 101° |
| 2026-04-30 20:00 | 25.24342 | -77.89611 | 9455 ft | 253 kts | 102° |
| 2026-04-30 20:01 | 25.23626 | -77.86020 | 8764 ft | 236 kts | 102° |
| 2026-04-30 20:01 | 25.23274 | -77.84254 | 8211 ft | 235 kts | 102° |
| 2026-04-30 20:01 | 25.22924 | -77.82503 | 7692 ft | 233 kts | 103° |
| 2026-04-30 20:02 | 25.22238 | -77.79071 | 6715 ft | 228 kts | 104° |
| 2026-04-30 20:02 | 25.21898 | -77.77370 | 6233 ft | 225 kts | 104° |
| 2026-04-30 20:03 | 25.21232 | -77.74048 | 5579 ft | 224 kts | 104° |
| 2026-04-30 20:03 | 25.20894 | -77.72366 | 5285 ft | 222 kts | 104° |
| 2026-04-30 20:03 | 25.20563 | -77.70714 | 4790 ft | 221 kts | 104° |
| 2026-04-30 20:03 | 25.20230 | -77.69061 | 4254 ft | 221 kts | 104° |
| 2026-04-30 20:04 | 25.19899 | -77.67414 | 3770 ft | 221 kts | 104° |
| 2026-04-30 20:04 | 25.19566 | -77.65762 | 3400 ft | 217 kts | 104° |
| 2026-04-30 20:04 | 25.19237 | -77.64148 | 2993 ft | 215 kts | 106° |
| 2026-04-30 20:05 | 25.17640 | -77.61588 | 2746 ft | 198 kts | 132° |
| 2026-04-30 20:05 | 25.16657 | -77.60389 | 2784 ft | 215 kts | 135° |
| 2026-04-30 20:05 | 25.14578 | -77.58050 | 2570 ft | 214 kts | 136° |
| 2026-04-30 20:06 | 25.13530 | -77.56882 | 2312 ft | 214 kts | 136° |
| 2026-04-30 20:06 | 25.12513 | -77.55747 | 2034 ft | 200 kts | 136° |
| 2026-04-30 20:06 | 25.11575 | -77.54699 | 1775 ft | 188 kts | 136° |
| 2026-04-30 20:06 | 25.10687 | -77.53709 | 1537 ft | 175 kts | 136° |
| 2026-04-30 20:07 | 25.09860 | -77.52784 | 1314 ft | 163 kts | 136° |
| 2026-04-30 20:07 | 25.09086 | -77.51922 | 1128 ft | 153 kts | 136° |
| 2026-04-30 20:07 | 25.07718 | -77.50397 | 759 ft | 133 kts | 135° |
| 2026-04-30 20:08 | 25.07073 | -77.49653 | 512 ft | 138 kts | 137° |
| 2026-04-30 20:08 | 25.06391 | -77.48918 | 364 ft | 135 kts | 137° |
| 2026-04-30 20:08 | 25.05746 | -77.48185 | 231 ft | 133 kts | 137° |
| 2026-04-30 20:08 | 25.05082 | -77.47456 | 54 ft | 134 kts | 137° |
| 2026-04-30 20:09 | 25.04490 | -77.46801 | 22 ft | 98 kts | 134° |
| 2026-04-30 20:09 | 25.04183 | -77.46438 | 16 ft | 45 kts | 125° |
| 2026-04-30 20:09 | 25.04170 | -77.46188 | 16 ft | 8 kts | 320° |
| 2026-04-30 20:10 | 25.04246 | -77.46274 | 16 ft | 8 kts | 314° |
| 2026-04-30 20:10 | 25.04283 | -77.46314 | 18 ft | 8 kts | 314° |
| 2026-04-30 20:10 | 25.04318 | -77.46355 | 16 ft | 7 kts | 314° |
| 2026-04-30 20:11 | 25.04415 | -77.46464 | 18 ft | 13 kts | 314° |
| 2026-04-30 20:11 | 25.04475 | -77.46531 | 16 ft | 12 kts | 316° |
| 2026-04-30 20:11 | 25.04536 | -77.46597 | 16 ft | 14 kts | 315° |
| 2026-04-30 20:12 | 25.04681 | -77.46756 | 19 ft | 14 kts | 316° |
| 2026-04-30 20:12 | 25.04751 | -77.46830 | 17 ft | 14 kts | 315° |
| 2026-04-30 20:12 | 25.04815 | -77.46903 | 17 ft | 13 kts | 313° |
| 2026-04-30 20:13 | 25.04888 | -77.46949 | 18 ft | 13 kts | 8° |
| 2026-04-30 20:13 | 25.04952 | -77.46887 | 16 ft | 12 kts | 58° |
| 2026-04-30 20:13 | 25.05009 | -77.46839 | 16 ft | 10 kts | 7° |
| 2026-04-30 20:13 | 25.05040 | -77.46843 | 16 ft | 0 kts | 349° |
| 2026-04-30 20:14 | 25.05052 | -77.46845 | 16 ft | 1 kts | 348° |
| 2026-04-30 20:14 | 25.05052 | -77.46846 | 16 ft | 0 kts | 348° |